SBOSBO ATL / KATL
Speedbird OnlineSpeedbird Online ATL / KATL

Hartsfield Jackson Atlanta International Airport
13:44 18.5°C

Location Atlanta, United States
Latitude: 33.6367
Longitude: -84.428101
Web Airport Website | Wikipedia
Altitude 313 Meter / 1026 Feet
Distance 6,798 KM / 4,224 Miles
from London.
Time Zone UTC -5 hours (America/New_York)
Codes IATA: ATL
ICAO: KATL
Currency ÂŁ1 equals USD 1.22
Runways
RunwayLength (m)Surface
08L2743Concrete
08R3048Concrete
09L3624Concrete
09R2744Concrete
102743Concrete
26L3048Concrete
26R2743Concrete
27L2744Concrete
27R3624Concrete
282743Concrete
Radio
TypeDescriptionFrequency
APPATLANTA APP118.35
ATISATIS119.65
CLDCLNC DEL118.1
DEPATLANTA DEP125
GNDGND121.65
RDOMACON RDO116.9
SFASFA30.697
TWRATLANTA TWR119.1
UNICUNICOM122.95
Live ATC
METAR KATL 091803Z 31003KT 8SM FEW013 BKN022 OVC060 21/17 A3010 RMK AO2 RAE1755 P0000 T02110167
TAF KATL 091735Z 0918/1024 04004KT 5SM -SHRA BR BKN015 FM092000 06004KT 3SM -SHRA BR OVC008 FM100000 08006KT 3SM -DZ BR OVC004 FM100600 05004KT 1SM BR OVC004 FM101300 08004KT 1/2SM FG OVC004 FM101700 09005KT P6SM OVC015
Weather As Of 09 Dec 2022 13:44
Description Mist
Wind 6 km/h from North-West (310°)
Cloud Cover 100%
Precipitation Rain: none, Snow: none
Sunrise 07:30
Sunset 17:29
Lounges The Club @ ATL, International Terminal
American Airlines Admirals Club, North Terminal
Rotations During the last 90 days there were
70 flights from LHR
71 flights to LHR


© 2017-2022 Speedbird Online